Time;durP1;ratioP1;P1;durP2;ratioP2;P2;SDS_P1;SDS_P2;PMS_P1;PMS_P2;Temp;Humidity;BMP_temperature;BMP_pressure;BME280_temperature;BME280_humidity;BME280_pressure;Samples;Min_cycle;Max_cycle;Signal;HPM_P1;HPM_P2
2023/08/11 00:02:22;;;;;;;6.00;3.17;;;19.70;97.40;;;;;;5031684;28;20056;-78
2023/08/11 00:04:49;;;;;;;4.55;3.33;;;19.60;97.80;;;;;;5032733;28;20057;-78
2023/08/11 00:07:15;;;;;;;5.40;3.38;;;19.60;97.40;;;;;;5033233;28;20099;-78
2023/08/11 00:09:41;;;;;;;5.45;3.40;;;19.60;97.50;;;;;;5032951;28;20041;-79
2023/08/11 00:12:07;;;;;;;5.25;3.10;;;19.50;97.50;;;;;;5032991;28;20453;-79
2023/08/11 00:14:33;;;;;;;6.22;3.75;;;19.50;97.50;;;;;;5032270;28;20049;-78
2023/08/11 00:16:58;;;;;;;5.20;3.50;;;19.50;97.50;;;;;;5032962;28;20085;-78
2023/08/11 00:19:25;;;;;;;4.90;3.45;;;19.40;97.50;;;;;;5032493;28;20061;-78
2023/08/11 00:21:51;;;;;;;5.32;3.60;;;19.40;97.60;;;;;;5032756;28;20053;-78
2023/08/11 00:24:17;;;;;;;7.55;3.50;;;19.40;97.60;;;;;;5032510;28;20115;-78
2023/08/11 00:26:42;;;;;;;5.53;3.67;;;19.40;97.60;;;;;;5032688;28;20055;-78
2023/08/11 00:29:08;;;;;;;5.72;3.65;;;19.30;97.70;;;;;;5032594;28;20125;-78
2023/08/11 00:31:35;;;;;;;5.05;3.67;;;19.30;97.80;;;;;;5032599;28;20041;-78
2023/08/11 00:34:01;;;;;;;5.60;3.95;;;19.30;97.80;;;;;;5032022;28;20049;-78
2023/08/11 00:36:26;;;;;;;5.07;3.67;;;19.20;97.80;;;;;;5032927;28;20041;-78
2023/08/11 00:38:52;;;;;;;6.03;3.80;;;19.20;97.80;;;;;;5032324;28;20050;-78
2023/08/11 00:41:18;;;;;;;5.93;4.28;;;19.20;97.80;;;;;;5031490;28;20057;-78
2023/08/11 00:43:43;;;;;;;5.40;3.85;;;19.10;97.80;;;;;;5032701;28;20384;-78
2023/08/11 00:46:13;;;;;;;6.45;4.18;;;19.10;97.80;;;;;;5032535;28;20057;-78
2023/08/11 00:48:41;;;;;;;6.30;3.97;;;19.00;97.90;;;;;;5032312;28;20049;-78
2023/08/11 00:51:12;;;;;;;6.38;4.20;;;19.00;97.90;;;;;;5032770;28;20068;-78
2023/08/11 00:53:40;;;;;;;5.97;4.20;;;19.00;97.90;;;;;;5031278;28;20479;-78
2023/08/11 00:56:07;;;;;;;6.03;4.40;;;19.00;97.90;;;;;;5011921;28;20042;-78
2023/08/11 00:58:34;;;;;;;6.20;4.00;;;18.90;97.90;;;;;;5013750;28;20476;-78
2023/08/11 01:01:00;;;;;;;6.22;4.25;;;18.90;98.00;;;;;;5031925;28;20119;-78
2023/08/11 01:03:25;;;;;;;6.55;4.30;;;18.90;98.00;;;;;;5031970;28;20491;-78
2023/08/11 01:06:13;;;;;;;6.47;4.70;;;18.80;98.00;;;;;;5034927;28;20045;-78
2023/08/11 01:09:01;;;;;;;6.78;4.50;;;18.80;98.00;;;;;;5036427;28;20045;-78
2023/08/11 01:11:38;;;;;;;6.15;4.57;;;18.80;98.10;;;;;;5016854;28;20053;-78
2023/08/11 01:14:15;;;;;;;6.95;4.93;;;18.70;98.10;;;;;;5017590;28;20547;-78
2023/08/11 01:16:43;;;;;;;6.30;4.47;;;18.70;98.00;;;;;;5035590;28;20041;-78
2023/08/11 01:19:12;;;;;;;7.32;5.05;;;18.70;98.10;;;;;;5036159;28;20096;-78
2023/08/11 01:21:40;;;;;;;6.22;4.45;;;18.60;98.20;;;;;;5036330;28;20557;-78
2023/08/11 01:24:07;;;;;;;6.95;5.30;;;18.60;98.30;;;;;;5035801;28;20037;-78
2023/08/11 01:26:33;;;;;;;7.03;4.55;;;18.60;98.10;;;;;;5035908;28;20046;-79
2023/08/11 01:28:59;;;;;;;7.32;5.07;;;18.50;97.90;;;;;;5035004;28;21561;-78
2023/08/11 01:31:25;;;;;;;7.75;5.32;;;18.50;98.00;;;;;;5035496;28;20049;-78
2023/08/11 01:33:51;;;;;;;7.72;5.60;;;18.40;98.10;;;;;;5035873;28;20190;-78
2023/08/11 01:36:16;;;;;;;7.38;5.65;;;18.40;98.30;;;;;;5034384;28;20049;-78
2023/08/11 01:38:42;;;;;;;7.57;5.45;;;18.40;98.80;;;;;;5035619;28;20038;-79
2023/08/11 01:41:08;;;;;;;7.13;5.60;;;18.40;98.40;;;;;;5035585;28;20049;-78
2023/08/11 01:43:35;;;;;;;8.10;5.63;;;18.30;98.40;;;;;;5035436;28;20056;-78
2023/08/11 01:46:01;;;;;;;8.25;6.07;;;18.30;98.50;;;;;;5035592;28;20049;-78
2023/08/11 01:48:29;;;;;;;6.72;5.60;;;18.30;98.50;;;;;;5035519;28;20060;-78
2023/08/11 01:50:55;;;;;;;8.23;5.93;;;18.20;98.50;;;;;;5035147;28;20554;-78
2023/08/11 01:53:25;;;;;;;7.80;6.13;;;18.20;98.50;;;;;;5035742;28;20137;-79
2023/08/11 01:55:56;;;;;;;7.53;5.90;;;18.20;98.50;;;;;;5035386;28;20051;-79
2023/08/11 01:58:22;;;;;;;7.70;6.20;;;18.20;98.50;;;;;;5034787;28;20092;-78
2023/08/11 02:00:48;;;;;;;7.38;5.75;;;18.10;98.60;;;;;;5035009;28;20456;-79
2023/08/11 02:03:17;;;;;;;8.63;6.28;;;18.10;98.60;;;;;;5035808;28;20037;-79
2023/08/11 02:05:43;;;;;;;11.63;7.10;;;18.10;98.70;;;;;;5035181;28;20049;-79
2023/08/11 02:08:10;;;;;;;9.88;6.82;;;18.10;98.70;;;;;;5034244;28;20487;-79
2023/08/11 02:10:36;;;;;;;9.25;6.57;;;18.00;98.70;;;;;;5034571;28;20049;-79
2023/08/11 02:13:03;;;;;;;8.63;7.20;;;18.00;98.70;;;;;;5035099;28;20132;-79
2023/08/11 02:15:28;;;;;;;8.93;6.68;;;18.00;98.80;;;;;;5034434;28;20390;-79
2023/08/11 02:17:54;;;;;;;8.75;7.25;;;17.90;98.80;;;;;;5034691;28;20045;-79
2023/08/11 02:22:45;;;;;;;8.88;7.32;;;17.90;98.80;;;;;;5035221;28;20054;-78
2023/08/11 02:25:11;;;;;;;9.50;7.57;;;17.90;98.80;;;;;;5034843;28;20045;-78
2023/08/11 02:27:37;;;;;;;10.00;7.78;;;17.80;98.80;;;;;;5034541;28;20092;-79
2023/08/11 02:30:05;;;;;;;9.98;7.30;;;17.80;98.80;;;;;;5034752;28;20098;-78
2023/08/11 02:32:31;;;;;;;9.23;8.05;;;17.80;98.80;;;;;;5032606;28;20041;-78
2023/08/11 02:34:57;;;;;;;9.25;7.93;;;17.80;98.80;;;;;;5034766;28;20049;-78
2023/08/11 02:37:22;;;;;;;8.95;7.32;;;17.70;98.90;;;;;;5033422;28;20053;-79
2023/08/11 02:39:48;;;;;;;8.80;7.38;;;17.70;98.70;;;;;;5033974;28;20077;-78
2023/08/11 02:42:13;;;;;;;8.68;7.28;;;17.70;98.40;;;;;;5034114;28;20045;-78
2023/08/11 02:44:39;;;;;;;9.48;7.50;;;17.60;98.30;;;;;;5034740;28;20038;-78
2023/08/11 02:47:05;;;;;;;9.70;7.53;;;17.60;98.30;;;;;;5033949;28;20089;-77
2023/08/11 02:49:31;;;;;;;10.85;8.18;;;17.60;98.10;;;;;;5034237;28;20057;-79
2023/08/11 02:51:56;;;;;;;10.15;8.65;;;17.50;98.20;;;;;;5033634;28;20043;-78
2023/08/11 02:54:23;;;;;;;8.48;7.40;;;17.50;98.30;;;;;;5034239;28;20533;-78
2023/08/11 02:56:50;;;;;;;9.23;7.75;;;17.50;98.40;;;;;;5034171;28;20407;-79
2023/08/11 02:59:16;;;;;;;9.20;7.65;;;17.40;98.40;;;;;;5034521;28;20057;-79
2023/08/11 03:01:41;;;;;;;8.73;7.65;;;17.40;98.60;;;;;;5034036;28;20396;-79
2023/08/11 03:04:07;;;;;;;10.10;8.05;;;17.40;98.30;;;;;;5034086;28;20404;-79
2023/08/11 03:06:34;;;;;;;9.63;8.57;;;17.40;98.40;;;;;;5034090;28;20041;-78
2023/08/11 03:08:59;;;;;;;10.10;8.35;;;17.30;98.40;;;;;;5034265;28;20046;-78
2023/08/11 03:11:25;;;;;;;9.43;8.13;;;17.30;98.30;;;;;;5033715;28;20095;-78
2023/08/11 03:13:50;;;;;;;10.40;8.15;;;17.30;98.40;;;;;;5034355;28;20045;-79
2023/08/11 03:16:16;;;;;;;9.73;8.57;;;17.20;98.50;;;;;;5033260;28;20057;-78
2023/08/11 03:18:42;;;;;;;9.02;8.07;;;17.20;98.50;;;;;;5032965;28;20503;-78
2023/08/11 03:21:07;;;;;;;9.70;8.52;;;17.20;98.30;;;;;;5034024;28;20049;-78
2023/08/11 03:23:34;;;;;;;10.27;8.63;;;17.20;98.30;;;;;;5032746;28;20509;-78
2023/08/11 03:26:02;;;;;;;9.88;8.05;;;17.10;98.30;;;;;;5033482;28;20119;-78
2023/08/11 03:28:31;;;;;;;8.95;7.93;;;17.20;98.40;;;;;;5033563;28;20045;-78
2023/08/11 03:31:00;;;;;;;10.00;8.10;;;17.10;98.30;;;;;;5033790;28;20120;-78
2023/08/11 03:33:25;;;;;;;10.95;8.50;;;17.10;98.30;;;;;;5033705;28;20056;-78
2023/08/11 03:35:51;;;;;;;9.98;8.65;;;17.10;98.40;;;;;;5033530;28;20487;-78
2023/08/11 03:38:17;;;;;;;10.30;8.68;;;17.00;98.30;;;;;;5033278;28;20054;-78
2023/08/11 03:40:42;;;;;;;10.35;8.32;;;17.00;98.50;;;;;;5033681;28;20575;-78
2023/08/11 03:43:08;;;;;;;9.73;8.30;;;17.00;98.60;;;;;;5033223;28;20037;-78
2023/08/11 03:45:35;;;;;;;11.23;9.05;;;17.00;98.60;;;;;;5033404;28;20061;-78
2023/08/11 03:48:01;;;;;;;11.85;8.73;;;16.90;98.70;;;;;;5032896;28;20454;-78
2023/08/11 03:50:27;;;;;;;10.07;8.50;;;16.90;98.70;;;;;;5032414;28;20132;-78
2023/08/11 03:52:52;;;;;;;10.18;8.80;;;16.90;98.90;;;;;;5031765;28;20124;-78
2023/08/11 03:55:18;;;;;;;9.52;8.23;;;16.90;99.00;;;;;;5032636;28;20044;-78
2023/08/11 03:57:45;;;;;;;9.50;8.02;;;16.90;98.70;;;;;;5032519;28;20442;-78
2023/08/11 04:00:14;;;;;;;10.77;8.48;;;16.80;98.50;;;;;;5032410;28;20464;-78
2023/08/11 04:02:48;;;;;;;10.75;8.13;;;16.80;98.60;;;;;;5032837;28;20103;-78
2023/08/11 04:05:17;;;;;;;9.80;8.43;;;16.80;98.40;;;;;;5033494;28;20460;-78
2023/08/11 04:07:43;;;;;;;8.32;7.28;;;16.80;98.30;;;;;;5032832;28;20041;-78
2023/08/11 04:10:10;;;;;;;9.27;8.15;;;16.70;98.10;;;;;;5032413;28;20048;-78
2023/08/11 04:12:36;;;;;;;10.15;8.65;;;16.70;98.00;;;;;;5032659;28;20487;-77
2023/08/11 04:15:02;;;;;;;9.05;7.70;;;16.70;98.40;;;;;;5032329;28;20041;-78
2023/08/11 04:17:28;;;;;;;9.85;8.40;;;16.70;98.20;;;;;;5032452;28;20128;-78
2023/08/11 04:19:54;;;;;;;9.27;7.90;;;16.70;98.50;;;;;;5031655;28;20120;-78
2023/08/11 04:22:20;;;;;;;8.90;7.88;;;16.60;98.70;;;;;;5032381;28;20053;-78
2023/08/11 04:24:46;;;;;;;9.50;8.23;;;16.60;98.70;;;;;;5033282;28;20081;-78
2023/08/11 04:27:12;;;;;;;8.50;7.53;;;16.60;98.90;;;;;;5033024;28;20139;-78
2023/08/11 04:29:38;;;;;;;9.10;8.00;;;16.60;98.70;;;;;;5030823;28;20049;-78
2023/08/11 04:32:04;;;;;;;9.38;7.78;;;16.50;98.40;;;;;;5032474;28;20042;-79
2023/08/11 04:34:51;;;;;;;10.02;8.02;;;16.50;98.30;;;;;;5032540;28;20055;-79
2023/08/11 04:37:23;;;;;;;8.55;7.32;;;16.50;98.20;;;;;;5033250;28;20046;-79
2023/08/11 04:39:49;;;;;;;8.77;7.22;;;16.50;98.40;;;;;;5032560;28;20104;-78
2023/08/11 04:42:19;;;;;;;8.40;7.13;;;16.50;98.40;;;;;;5036816;28;20154;-78
2023/08/11 04:44:44;;;;;;;9.93;7.63;;;16.50;98.30;;;;;;5036658;28;20044;-78
2023/08/11 04:47:10;;;;;;;11.10;8.15;;;16.40;98.30;;;;;;5036680;28;20038;-79
2023/08/11 04:49:36;;;;;;;8.63;7.72;;;16.40;98.70;;;;;;5036418;28;20080;-78
2023/08/11 04:52:01;;;;;;;8.48;7.53;;;16.40;99.00;;;;;;5036860;28;20052;-78
2023/08/11 04:54:27;;;;;;;9.48;8.00;;;16.40;98.90;;;;;;5036618;28;20045;-79
2023/08/11 04:56:53;;;;;;;10.07;7.53;;;16.40;98.90;;;;;;5036443;28;20046;-78
2023/08/11 04:59:19;;;;;;;7.82;6.50;;;16.40;98.80;;;;;;5035510;28;20463;-78
2023/08/11 05:01:45;;;;;;;9.02;6.70;;;16.30;98.40;;;;;;5035127;28;20080;-78
2023/08/11 05:04:11;;;;;;;9.55;7.50;;;16.30;98.40;;;;;;5036362;28;20041;-78
2023/08/11 05:06:37;;;;;;;8.25;6.97;;;16.30;98.70;;;;;;5036740;28;20041;-78
2023/08/11 05:09:03;;;;;;;11.00;7.72;;;16.30;98.40;;;;;;5035409;28;20095;-78
2023/08/11 05:11:29;;;;;;;8.70;6.90;;;16.30;98.60;;;;;;5036285;28;20056;-78
2023/08/11 05:13:55;;;;;;;8.85;6.97;;;16.30;98.50;;;;;;5036127;28;20041;-78
2023/08/11 05:16:21;;;;;;;8.90;7.60;;;16.30;98.30;;;;;;5034698;28;20049;-78
2023/08/11 05:18:47;;;;;;;11.48;7.50;;;16.30;98.50;;;;;;5036268;28;20045;-78
2023/08/11 05:21:13;;;;;;;10.93;6.95;;;16.30;98.70;;;;;;5036215;28;20042;-78
2023/08/11 05:23:39;;;;;;;10.85;7.82;;;16.30;98.70;;;;;;5036343;28;20049;-78
2023/08/11 05:26:05;;;;;;;12.45;8.02;;;16.30;98.70;;;;;;5036318;28;20045;-78
2023/08/11 05:28:30;;;;;;;13.80;8.77;;;16.30;98.90;;;;;;5035979;28;20052;-79
2023/08/11 05:30:56;;;;;;;14.73;8.75;;;16.30;99.00;;;;;;5035411;28;20403;-78
2023/08/11 05:33:23;;;;;;;10.70;7.95;;;16.30;99.10;;;;;;5036055;28;20514;-78
2023/08/11 05:35:49;;;;;;;11.73;8.23;;;16.30;99.20;;;;;;5036198;28;20041;-79
2023/08/11 05:38:14;;;;;;;9.88;7.43;;;16.30;99.40;;;;;;5035805;28;20377;-78
2023/08/11 05:40:42;;;;;;;10.73;7.97;;;16.30;99.00;;;;;;5035736;28;20053;-78
2023/08/11 05:43:08;;;;;;;10.57;7.95;;;16.30;99.10;;;;;;5035402;28;20491;-78
2023/08/11 05:45:33;;;;;;;9.02;6.80;;;16.30;99.20;;;;;;5035367;28;20091;-78
2023/08/11 05:47:59;;;;;;;10.07;6.80;;;16.30;98.90;;;;;;5035133;28;20040;-77
2023/08/11 05:50:25;;;;;;;10.25;7.50;;;16.30;98.90;;;;;;5035568;28;20095;-78
2023/08/11 05:52:51;;;;;;;10.40;7.13;;;16.30;99.00;;;;;;5035859;28;20080;-78
2023/08/11 05:55:16;;;;;;;10.55;7.13;;;16.40;98.90;;;;;;5035498;28;20415;-78
2023/08/11 05:57:42;;;;;;;7.93;6.35;;;16.40;99.10;;;;;;5035541;28;20438;-79
2023/08/11 06:00:09;;;;;;;11.82;7.20;;;16.40;98.90;;;;;;5035041;28;20133;-78
2023/08/11 06:02:34;;;;;;;9.15;7.18;;;16.40;99.20;;;;;;5035450;28;20148;-79
2023/08/11 06:05:00;;;;;;;10.05;6.68;;;16.40;99.20;;;;;;5034346;28;20049;-76
2023/08/11 06:07:26;;;;;;;8.73;6.43;;;16.40;99.10;;;;;;5033925;28;20507;-77
2023/08/11 06:09:51;;;;;;;9.02;6.95;;;16.50;99.10;;;;;;5033857;28;20045;-78
2023/08/11 06:12:17;;;;;;;11.48;7.57;;;16.50;99.00;;;;;;5050660;28;20053;-76
2023/08/11 06:14:43;;;;;;;9.45;7.53;;;16.50;99.60;;;;;;5035262;28;20049;-79
2023/08/11 06:17:08;;;;;;;11.05;7.32;;;16.60;99.90;;;;;;5034369;28;20049;-78
2023/08/11 06:19:34;;;;;;;11.20;7.40;;;16.60;99.80;;;;;;5035135;28;20080;-78
2023/08/11 06:21:59;;;;;;;11.25;7.35;;;16.60;99.90;;;;;;5032712;28;20050;-78
2023/08/11 06:24:29;;;;;;;12.02;7.82;;;16.70;99.90;;;;;;5034295;28;20045;-79
2023/08/11 06:26:57;;;;;;;10.18;8.13;;;16.70;99.90;;;;;;5034521;28;20064;-78
2023/08/11 06:29:23;;;;;;;10.75;7.65;;;16.80;99.90;;;;;;5034239;28;20049;-78
2023/08/11 06:31:49;;;;;;;11.88;7.57;;;16.80;99.90;;;;;;5033508;28;20068;-78
2023/08/11 06:34:17;;;;;;;9.35;6.78;;;16.90;99.90;;;;;;5034291;28;20496;-78
2023/08/11 06:36:46;;;;;;;11.02;7.75;;;16.90;99.90;;;;;;5032930;28;20121;-78
2023/08/11 06:39:12;;;;;;;11.60;7.57;;;17.00;99.90;;;;;;5034483;28;20056;-78
2023/08/11 06:41:38;;;;;;;9.23;6.75;;;17.00;99.90;;;;;;5033069;28;20042;-78
2023/08/11 06:44:07;;;;;;;9.43;6.90;;;17.10;99.90;;;;;;5033786;28;20538;-78
2023/08/11 06:46:33;;;;;;;10.70;6.70;;;17.20;99.90;;;;;;5034603;28;20064;-78
2023/08/11 06:48:59;;;;;;;11.93;7.13;;;17.30;99.90;;;;;;5034345;28;20041;-78
2023/08/11 06:51:25;;;;;;;12.27;6.65;;;17.30;99.90;;;;;;5049374;28;20053;-78
2023/08/11 06:53:50;;;;;;;9.00;6.47;;;17.40;99.90;;;;;;5033117;28;20038;-79
2023/08/11 06:56:16;;;;;;;11.07;6.53;;;17.40;99.90;;;;;;5032934;28;20045;-78
2023/08/11 06:58:42;;;;;;;10.75;6.40;;;17.50;99.90;;;;;;5034143;28;20045;-78
2023/08/11 07:01:07;;;;;;;9.98;6.13;;;17.60;99.90;;;;;;5033778;28;20416;-79
2023/08/11 07:03:33;;;;;;;11.15;6.70;;;17.70;99.90;;;;;;5032420;28;20053;-78
2023/08/11 07:06:00;;;;;;;11.70;6.55;;;17.70;99.90;;;;;;5033364;28;20081;-78
2023/08/11 07:08:26;;;;;;;10.38;6.68;;;17.90;99.90;;;;;;5034258;28;20087;-78
2023/08/11 07:10:52;;;;;;;10.98;6.03;;;18.00;99.90;;;;;;5033241;28;20041;-78
2023/08/11 07:13:17;;;;;;;9.10;6.35;;;18.00;99.90;;;;;;5034375;28;20179;-78
2023/08/11 07:15:43;;;;;;;8.55;5.35;;;18.10;99.90;;;;;;5034061;28;20034;-78
2023/08/11 07:18:12;;;;;;;10.75;6.03;;;18.20;99.90;;;;;;5032633;28;20144;-78
2023/08/11 07:20:44;;;;;;;7.63;6.15;;;18.30;99.90;;;;;;5034104;28;20132;-78
2023/08/11 07:23:10;;;;;;;6.65;5.18;;;18.40;99.90;;;;;;5034057;28;20079;-78
2023/08/11 07:25:36;;;;;;;12.77;5.90;;;18.50;99.60;;;;;;5034295;28;20041;-78
2023/08/11 07:28:02;;;;;;;11.30;5.78;;;18.60;99.50;;;;;;5033735;28;20045;-78
2023/08/11 07:30:30;;;;;;;9.48;5.47;;;18.70;99.20;;;;;;5033986;28;20041;-78
2023/08/11 07:33:00;;;;;;;11.90;6.03;;;18.80;99.10;;;;;;5030932;28;20487;-78
2023/08/11 07:35:26;;;;;;;8.63;5.70;;;18.90;98.90;;;;;;5032510;28;20062;-78
2023/08/11 07:37:52;;;;;;;8.90;5.63;;;19.00;98.80;;;;;;5032171;28;20050;-78
2023/08/11 07:40:18;;;;;;;9.38;5.13;;;19.10;98.70;;;;;;5032516;28;20046;-78
2023/08/11 07:42:43;;;;;;;8.18;5.90;;;19.20;98.50;;;;;;5032978;28;20522;-78
2023/08/11 07:45:10;;;;;;;9.65;4.80;;;19.30;98.30;;;;;;5033698;28;20365;-79
2023/08/11 07:47:36;;;;;;;8.10;5.22;;;19.50;98.20;;;;;;5033666;28;20049;-78
2023/08/11 07:50:02;;;;;;;9.88;5.13;;;19.50;98.10;;;;;;5031680;28;20053;-78
2023/08/11 07:52:27;;;;;;;12.70;5.10;;;19.60;98.00;;;;;;5032362;28;20045;-78
2023/08/11 07:54:53;;;;;;;8.82;4.90;;;19.70;97.90;;;;;;5033665;28;20046;-78
2023/08/11 07:57:19;;;;;;;8.88;4.50;;;19.80;97.50;;;;;;5032848;28;20037;-78
2023/08/11 07:59:44;;;;;;;8.00;4.65;;;19.90;97.30;;;;;;5033319;28;20084;-79
2023/08/11 08:02:12;;;;;;;9.73;5.20;;;20.00;97.30;;;;;;5032425;28;20040;-78
2023/08/11 08:04:38;;;;;;;7.05;4.50;;;20.10;97.10;;;;;;5033219;28;20057;-79
2023/08/11 08:07:04;;;;;;;8.40;4.57;;;20.20;97.10;;;;;;5032206;28;20052;-78
2023/08/11 08:09:33;;;;;;;7.65;4.50;;;20.30;96.90;;;;;;5031963;28;20045;-78
2023/08/11 08:12:01;;;;;;;8.77;4.63;;;20.40;96.70;;;;;;5033384;28;20526;-78
2023/08/11 08:14:26;;;;;;;6.85;4.30;;;20.50;96.80;;;;;;5031124;28;20099;-78
2023/08/11 08:16:52;;;;;;;7.95;4.28;;;20.60;96.60;;;;;;5032766;28;20139;-79
2023/08/11 08:19:20;;;;;;;6.80;4.13;;;20.70;96.20;;;;;;5031604;28;20485;-80
2023/08/11 08:21:46;;;;;;;9.88;4.28;;;20.80;95.90;;;;;;5032704;28;20046;-81
2023/08/11 08:24:14;;;;;;;6.95;3.53;;;20.90;95.60;;;;;;5030851;28;20052;-80
2023/08/11 08:26:40;;;;;;;7.63;4.15;;;20.90;95.20;;;;;;5032440;28;20045;-79
2023/08/11 08:29:06;;;;;;;8.15;3.90;;;21.10;95.30;;;;;;5032381;28;20176;-80
2023/08/11 08:31:33;;;;;;;8.18;3.88;;;21.10;95.30;;;;;;5048458;28;20045;-80
2023/08/11 08:33:59;;;;;;;8.18;3.53;;;21.20;94.90;;;;;;5031718;28;20049;-79
2023/08/11 08:36:25;;;;;;;9.45;3.95;;;21.30;94.90;;;;;;5032364;28;20049;-80
2023/08/11 08:38:51;;;;;;;6.65;3.22;;;21.40;94.70;;;;;;5032524;28;20045;-80
2023/08/11 08:41:28;;;;;;;6.88;3.47;;;21.50;94.60;;;;;;5032224;28;20464;-81
2023/08/11 08:43:54;;;;;;;10.10;3.90;;;21.60;94.30;;;;;;5024095;28;20041;-80
2023/08/11 08:46:22;;;;;;;10.93;3.60;;;21.70;94.40;;;;;;5022492;28;20085;-80
2023/08/11 08:49:06;;;;;;;8.55;2.92;;;21.80;94.30;;;;;;5044189;28;20643;-80
2023/08/11 08:51:33;;;;;;;5.47;3.10;;;21.80;93.80;;;;;;5027610;28;20085;-80
2023/08/11 08:54:00;;;;;;;6.43;3.38;;;21.90;93.60;;;;;;5019957;28;20046;-80
2023/08/11 08:56:27;;;;;;;6.00;3.28;;;22.00;93.70;;;;;;5025293;28;20092;-80
2023/08/11 08:58:53;;;;;;;5.93;3.10;;;22.10;93.80;;;;;;5035756;28;20046;-79
2023/08/11 09:01:20;;;;;;;8.15;3.60;;;22.20;94.00;;;;;;5036415;28;20046;-81
2023/08/11 09:03:46;;;;;;;7.10;3.47;;;22.30;93.60;;;;;;5029511;28;20038;-80
2023/08/11 09:06:13;;;;;;;9.40;3.60;;;22.30;93.20;;;;;;5023582;28;20045;-80
2023/08/11 09:08:39;;;;;;;6.82;3.40;;;22.40;92.50;;;;;;5033949;28;20037;-80
2023/08/11 09:11:05;;;;;;;5.93;3.30;;;22.50;92.60;;;;;;5036148;28;20045;-80
2023/08/11 09:13:34;;;;;;;7.10;3.78;;;22.60;92.60;;;;;;5030313;28;20068;-80
2023/08/11 09:16:00;;;;;;;6.57;3.10;;;22.60;92.50;;;;;;5019954;28;20080;-80
2023/08/11 09:18:27;;;;;;;9.15;3.60;;;22.70;91.80;;;;;;5030449;28;20042;-80
2023/08/11 09:20:53;;;;;;;9.25;3.85;;;22.80;91.90;;;;;;5031429;28;20057;-80
2023/08/11 09:23:19;;;;;;;8.10;3.50;;;22.90;91.30;;;;;;5027885;28;20583;-80
2023/08/11 09:25:49;;;;;;;8.57;3.38;;;22.90;91.90;;;;;;5028981;28;20132;-82
2023/08/11 09:28:14;;;;;;;6.53;3.20;;;23.00;92.10;;;;;;5034019;28;20047;-80
2023/08/11 09:30:41;;;;;;;6.10;3.55;;;23.10;91.90;;;;;;5051349;28;20546;-80
2023/08/11 09:33:07;;;;;;;7.35;3.60;;;23.20;91.70;;;;;;5036061;28;20037;-80
2023/08/11 09:35:33;;;;;;;6.50;3.33;;;23.30;91.80;;;;;;5035991;28;20056;-80
2023/08/11 09:38:00;;;;;;;6.43;3.10;;;23.30;91.80;;;;;;5036225;28;20041;-80
2023/08/11 09:40:26;;;;;;;7.03;2.92;;;23.40;91.30;;;;;;5035335;28;20049;-80
2023/08/11 09:42:55;;;;;;;8.48;3.20;;;23.50;92.00;;;;;;5039186;28;20049;-80
2023/08/11 09:45:22;;;;;;;7.07;3.20;;;23.60;92.00;;;;;;5047340;28;20136;-80
2023/08/11 09:47:48;;;;;;;7.15;3.00;;;23.70;91.40;;;;;;5035747;28;20458;-81
2023/08/11 09:50:14;;;;;;;7.97;3.30;;;23.70;91.40;;;;;;5035389;28;20038;-80
2023/08/11 09:52:41;;;;;;;5.50;3.20;;;23.80;91.50;;;;;;5034537;28;20154;-80
2023/08/11 09:55:09;;;;;;;6.05;3.35;;;23.90;91.80;;;;;;5035283;28;20045;-80
2023/08/11 09:57:37;;;;;;;7.85;3.15;;;23.90;91.50;;;;;;5036467;28;20054;-82
2023/08/11 10:00:11;;;;;;;10.00;3.50;;;24.00;91.20;;;;;;5035228;28;20062;-80
2023/08/11 10:02:44;;;;;;;7.80;3.25;;;24.10;91.00;;;;;;5021860;28;20045;-80
2023/08/11 10:05:11;;;;;;;7.88;3.05;;;24.20;92.00;;;;;;5034970;28;20041;-81
2023/08/11 10:07:40;;;;;;;8.75;3.58;;;24.20;91.80;;;;;;5031984;28;20060;-80
2023/08/11 10:10:17;;;;;;;5.63;3.30;;;24.30;91.60;;;;;;5034368;28;20040;-80
2023/08/11 10:13:07;;;;;;;7.60;3.50;;;24.40;91.50;;;;;;5034515;28;20055;-80
2023/08/11 10:15:33;;;;;;;6.47;3.38;;;24.40;91.60;;;;;;5034553;28;20579;-81
2023/08/11 10:18:04;;;;;;;6.35;3.38;;;24.50;91.60;;;;;;5034986;28;20044;-80
2023/08/11 10:20:30;;;;;;;6.97;3.20;;;24.60;91.50;;;;;;5035082;28;20052;-80
2023/08/11 10:22:56;;;;;;;8.25;3.00;;;24.70;91.40;;;;;;5034655;28;20528;-80
2023/08/11 10:25:23;;;;;;;6.07;3.00;;;24.70;90.90;;;;;;5033387;28;20045;-81
2023/08/11 10:27:50;;;;;;;5.65;2.72;;;24.80;90.30;;;;;;5033920;28;20041;-81
2023/08/11 10:30:16;;;;;;;6.53;2.90;;;24.90;90.80;;;;;;5035237;28;20048;-80
2023/08/11 10:32:42;;;;;;;8.10;2.67;;;24.90;90.90;;;;;;5043518;28;20056;-81
2023/08/11 10:35:33;;;;;;;6.20;2.85;;;25.00;90.30;;;;;;5034292;28;20384;-81
2023/08/11 10:37:59;;;;;;;7.85;2.97;;;25.00;89.10;;;;;;5032934;28;20132;-80
2023/08/11 10:40:38;;;;;;;9.40;2.75;;;25.10;90.00;;;;;;5034904;28;20153;-81
2023/08/11 10:43:06;;;;;;;7.18;2.85;;;25.20;89.20;;;;;;5034530;28;20542;-81
2023/08/11 10:45:34;;;;;;;9.80;2.80;;;25.20;89.40;;;;;;5045387;28;20049;-81
2023/08/11 10:48:06;;;;;;;7.18;2.80;;;25.30;89.50;;;;;;5033367;28;20132;-81
2023/08/11 10:50:32;;;;;;;5.40;2.40;;;25.40;88.60;;;;;;5035216;28;20057;-81
2023/08/11 10:53:21;;;;;;;5.55;2.70;;;25.40;89.20;;;;;;5034387;28;20042;-81
2023/08/11 10:56:03;;;;;;;5.20;2.45;;;25.50;90.60;;;;;;5032787;28;20049;-81
2023/08/11 10:58:32;;;;;;;4.90;2.42;;;25.60;90.20;;;;;;5030389;28;20114;-81
2023/08/11 11:00:59;;;;;;;6.95;2.70;;;25.70;89.40;;;;;;5032034;28;20549;-81
2023/08/11 11:03:25;;;;;;;5.18;2.60;;;25.70;88.70;;;;;;5030724;28;20045;-81
2023/08/11 11:05:52;;;;;;;4.82;2.22;;;25.80;89.70;;;;;;5031528;28;20088;-81
2023/08/11 11:08:17;;;;;;;5.15;2.60;;;25.90;88.00;;;;;;5033805;28;20502;-81
2023/08/11 11:10:43;;;;;;;6.20;2.50;;;26.00;89.80;;;;;;5032755;28;20041;-81
2023/08/11 11:13:12;;;;;;;6.05;2.50;;;26.00;87.40;;;;;;5039139;28;20437;-81
2023/08/11 11:15:37;;;;;;;4.50;2.20;;;26.10;87.60;;;;;;5032294;28;20125;-82
2023/08/11 11:18:04;;;;;;;4.88;2.55;;;26.20;86.40;;;;;;5017404;28;20534;-81
2023/08/11 11:20:29;;;;;;;5.50;2.55;;;26.20;88.10;;;;;;5042611;28;20049;-81
2023/08/11 11:22:55;;;;;;;7.05;2.63;;;26.30;89.70;;;;;;5032215;28;20475;-81
2023/08/11 11:25:21;;;;;;;6.63;2.25;;;26.30;86.70;;;;;;5032413;28;20049;-81
2023/08/11 11:27:47;;;;;;;7.07;2.45;;;26.40;86.90;;;;;;5034158;28;20037;-81
2023/08/11 11:30:13;;;;;;;6.22;2.47;;;26.40;87.10;;;;;;5044287;28;20041;-80
2023/08/11 11:32:40;;;;;;;6.78;2.60;;;26.50;87.40;;;;;;5033128;28;20503;-80
2023/08/11 11:35:07;;;;;;;5.47;2.25;;;26.50;86.80;;;;;;5033372;28;20495;-82
2023/08/11 11:37:33;;;;;;;5.90;2.38;;;26.60;87.50;;;;;;5039021;28;20069;-81
2023/08/11 11:40:03;;;;;;;6.07;2.75;;;26.70;87.80;;;;;;5017422;28;20091;-82
2023/08/11 11:42:31;;;;;;;7.78;2.42;;;26.70;85.00;;;;;;5033500;28;20129;-81
2023/08/11 11:44:58;;;;;;;6.20;2.80;;;26.70;85.90;;;;;;5015292;28;20099;-74
2023/08/11 11:47:24;;;;;;;5.93;2.55;;;26.80;83.10;;;;;;5017243;28;20586;-81
2023/08/11 11:49:57;;;;;;;9.25;2.58;;;26.80;88.50;;;;;;5020324;28;20145;-81
2023/08/11 11:52:24;;;;;;;6.32;2.45;;;26.80;86.30;;;;;;5016408;28;20502;-81
2023/08/11 11:54:57;;;;;;;7.55;2.50;;;26.90;83.90;;;;;;5026255;28;20059;-79
2023/08/11 11:57:23;;;;;;;;;;;26.90;86.20;;;;;;5026674;28;20370;-81
2023/08/11 11:59:49;;;;;;;6.22;2.67;;;26.80;85.70;;;;;;5020012;28;19988;-81
2023/08/11 12:02:16;;;;;;;6.20;2.63;;;26.90;85.50;;;;;;5030913;28;20044;-81
2023/08/11 12:04:46;;;;;;;7.82;2.75;;;27.00;86.00;;;;;;5034817;28;20043;-80
2023/08/11 12:07:31;;;;;;;5.20;2.47;;;27.10;86.00;;;;;;5038180;28;20034;-81
2023/08/11 12:09:58;;;;;;;5.60;2.20;;;27.20;86.70;;;;;;5025258;28;20033;-81
2023/08/11 12:12:24;;;;;;;6.15;2.33;;;27.20;86.70;;;;;;5032546;28;20045;-81
2023/08/11 12:14:51;;;;;;;6.80;2.60;;;27.30;86.30;;;;;;5031267;28;20141;-81
2023/08/11 12:17:16;;;;;;;5.95;2.30;;;27.40;86.30;;;;;;5029896;28;20049;-81
2023/08/11 12:19:45;;;;;;;5.38;2.30;;;27.40;88.80;;;;;;5030652;28;20037;-80
2023/08/11 12:22:10;;;;;;;7.40;2.33;;;27.50;88.60;;;;;;5029500;28;20084;-79
2023/08/11 12:24:36;;;;;;;12.45;3.78;;;27.50;87.10;;;;;;5031732;28;20407;-81
2023/08/11 12:27:03;;;;;;;6.68;2.55;;;27.50;86.80;;;;;;5032184;28;20077;-80
2023/08/11 12:29:29;;;;;;;5.70;2.17;;;27.60;85.50;;;;;;5029984;28;20046;-81
2023/08/11 12:31:54;;;;;;;4.75;2.20;;;27.70;83.70;;;;;;5032555;28;20038;-81
2023/08/11 12:34:20;;;;;;;5.82;2.40;;;27.70;83.50;;;;;;5027001;28;20049;-81
2023/08/11 12:36:46;;;;;;;4.40;2.40;;;27.70;81.60;;;;;;5031637;28;20116;-81
2023/08/11 12:39:11;;;;;;;6.07;2.35;;;27.70;80.50;;;;;;5028559;28;20049;-80
2023/08/11 12:41:38;;;;;;;8.80;2.60;;;27.80;83.80;;;;;;5031372;28;20053;-81
2023/08/11 12:44:05;;;;;;;8.88;2.55;;;27.80;82.20;;;;;;5031049;28;20049;-81
2023/08/11 12:46:33;;;;;;;6.05;2.33;;;27.80;81.30;;;;;;5033181;28;20178;-81
2023/08/11 12:48:59;;;;;;;8.63;2.25;;;27.90;81.90;;;;;;5032885;28;20049;-80